Historyczne dane pomiarowe

Dodano dane terminowe – wersja testowa.

Dane z okresu 1951-2019

Wersja bazy: 1.34 [2019-03-16, lista zmian], aktualizacja planowana na 2019-04-15

Dane meteo z obszaru Polski uzyskane na podstawie danych udostępnionych przez Instytut Meteorologii i Gospodarki Wodnej – Państwowy Instytut Badawczy.

 

Wybierz Datę:    

       

TemperaturaWilgotnośćWiatrCiśnienieOpadyŚniegCzas trwania zjawisk
 Stacja t tx tn tng RH VA  wxwx mslp ppp RRR   cm mm wxwxwxwxwxwxwx
1952-02-26 -0.2 0.8 -2.0 -3.1 97.8- 8.0 1.0---- 2.0------------
1952-02-27 -4.2 0.7 -6.6 -1.6 94.8- 8.0 1.0---- 0.0------------
1952-02-28 -6.3 -3.8 -9.2-10.6 89.0- 4.7 1.0---- 0.0------------
1952-02-29 -3.7 -2.8 -7.2 -9.1 93.3- 8.0 3.7---- 3.2------------
1952-03-01 -2.4 0.8 -4.4 -4.9 94.3- 5.7 12.7---- 3.0-- 6---------
1952-03-02 -4.4 -0.7 -8.8 -7.9 93.3- 3.0 5.7---- 0.0-- 1---------
1952-03-03 -3.2 0.8 -9.3-10.9 92.0- 5.7 1.7---- 0.0------------
1952-03-04 -9.0 -2.3-12.2-13.4 87.8- 6.0 1.7---- 0.0------------
1952-03-05 -5.4 -2.2-11.2-12.9 91.0- 3.0 5.0---- 0.0------------
1952-03-06-10.2 -4.2-13.7-15.4 86.8- 0.0 3.7---- 0.0------------
1952-03-07 -8.1 -4.2-12.7-14.9 89.0- 2.7 2.0---- 0.0------------
1952-03-08 -6.4 0.3-13.7-15.9 90.5- 0.0 2.0---- 0.0------------
1952-03-09 -3.2 2.7-10.8-11.9 94.8- 0.0 4.0---- 0.0------------
1952-03-10 -1.8 6.7 -6.8 -8.4 93.0- 0.0 3.0---- 0.0------------
1952-03-11 2.6 6.8 -6.8 -8.4 96.3- 2.0 5.7---- 0.0------------
1952-03-12 1.8 4.3 1.0 -0.1 96.0- 7.7 2.7---- 0.0------------
1952-03-13 -1.4 2.3 -3.9 -0.9 95.0- 5.7 4.7---- 2.7------------
1952-03-14 -5.7 -3.2 -7.3 -7.4 90.5- 2.7 8.0---- 0.3-- 2---------
1952-03-15 -1.0 1.3 -7.3 -8.4 95.8- 6.0 6.3---- 0.0------------
1952-03-16 0.6 2.3 -1.5 -1.9 97.0- 4.0 4.0---- 0.0------------
1952-03-17 -1.4 2.8 -3.4 -1.4 97.5- 3.7 2.3---- 0.0------------
1952-03-18 -6.0 -2.7 -6.8 -8.4 91.0- 0.0 2.3---- 0.0------------
1952-03-19 -6.5 -0.7-10.8-11.9 89.3- 3.3 3.0---- 0.4-- 1---------
1952-03-20 -6.8 -1.7-13.2-14.4 90.3- 2.3 2.3---- 0.0------------
1952-03-21 -6.6 -5.2 -8.9 -6.9 89.8- 2.0 3.3---- 0.0------------
1952-03-22 -7.7 -3.7-13.2-14.4 89.5- 1.7 2.3---- 0.0------------
1952-03-23 -6.1 -3.2-10.3-11.4 91.0- 1.0 3.0---- 2.0------------
1952-03-24 -4.0 1.3 -5.4 -5.9 94.0- 5.0 4.0---- 2.1-- 7---------
1952-03-25 -6.4 0.3 -9.3 -7.9 91.3- 2.7 4.0---- 0.0------------
1952-03-26 -9.2 -5.0-12.2-11.4 88.3- 0.0 1.0---- 0.0------------
113.2 ms

 

Źródłem pochodzenia danych jest Instytut Meteorologii i Gospodarki Wodnej – Państwowy Instytut Badawczy. Dane Instytutu Meteorologii i Gospodarki Wodnej – Państwowego Instytutu Badawczego zostały przetworzone.

Dane źródłowe można odnaleźć na stronie https://dane.imgw.pl